sensor_id;sensor_type;location;lat;lon;timestamp;P1;durP1;ratioP1;P2;durP2;ratioP2
11711;SDS011;5912;51.034;6.984;2023-04-30T00:01:57;15.23;;;13.25;;
11711;SDS011;5912;51.034;6.984;2023-04-30T00:04:22;16.35;;;13.48;;
11711;SDS011;5912;51.034;6.984;2023-04-30T00:06:47;15.27;;;13.05;;
11711;SDS011;5912;51.034;6.984;2023-04-30T00:09:12;15.30;;;13.27;;
11711;SDS011;5912;51.034;6.984;2023-04-30T00:11:38;16.25;;;13.80;;
11711;SDS011;5912;51.034;6.984;2023-04-30T00:14:03;16.80;;;13.70;;
11711;SDS011;5912;51.034;6.984;2023-04-30T00:16:28;15.80;;;13.20;;
11711;SDS011;5912;51.034;6.984;2023-04-30T00:18:54;16.65;;;12.88;;
11711;SDS011;5912;51.034;6.984;2023-04-30T00:21:19;13.82;;;11.88;;
11711;SDS011;5912;51.034;6.984;2023-04-30T00:23:44;15.18;;;12.27;;
11711;SDS011;5912;51.034;6.984;2023-04-30T00:26:10;13.90;;;11.13;;
11711;SDS011;5912;51.034;6.984;2023-04-30T00:28:35;15.50;;;11.18;;
11711;SDS011;5912;51.034;6.984;2023-04-30T00:31:00;14.05;;;11.07;;
11711;SDS011;5912;51.034;6.984;2023-04-30T00:33:26;18.38;;;11.18;;
11711;SDS011;5912;51.034;6.984;2023-04-30T00:35:52;14.07;;;11.63;;
11711;SDS011;5912;51.034;6.984;2023-04-30T00:38:17;14.55;;;10.77;;
11711;SDS011;5912;51.034;6.984;2023-04-30T00:40:42;13.23;;;11.38;;
11711;SDS011;5912;51.034;6.984;2023-04-30T00:43:08;11.60;;;9.82;;
11711;SDS011;5912;51.034;6.984;2023-04-30T00:45:33;13.25;;;10.25;;
11711;SDS011;5912;51.034;6.984;2023-04-30T00:47:58;12.02;;;10.45;;
11711;SDS011;5912;51.034;6.984;2023-04-30T00:50:36;11.85;;;9.63;;
11711;SDS011;5912;51.034;6.984;2023-04-30T00:53:02;11.18;;;9.45;;
11711;SDS011;5912;51.034;6.984;2023-04-30T00:55:28;11.68;;;8.82;;
11711;SDS011;5912;51.034;6.984;2023-04-30T00:57:53;10.80;;;8.77;;
11711;SDS011;5912;51.034;6.984;2023-04-30T01:00:19;12.10;;;9.48;;
11711;SDS011;5912;51.034;6.984;2023-04-30T01:02:45;10.88;;;8.68;;
11711;SDS011;5912;51.034;6.984;2023-04-30T01:05:11;10.45;;;9.32;;
11711;SDS011;5912;51.034;6.984;2023-04-30T01:07:36;12.10;;;9.63;;
11711;SDS011;5912;51.034;6.984;2023-04-30T01:10:05;10.48;;;8.90;;
11711;SDS011;5912;51.034;6.984;2023-04-30T01:12:36;11.13;;;9.87;;
11711;SDS011;5912;51.034;6.984;2023-04-30T01:15:21;11.60;;;9.48;;
11711;SDS011;5912;51.034;6.984;2023-04-30T01:18:19;12.70;;;9.80;;
11711;SDS011;5912;51.034;6.984;2023-04-30T01:20:52;12.57;;;9.60;;
11711;SDS011;5912;51.034;6.984;2023-04-30T01:26:13;11.47;;;9.83;;
11711;SDS011;5912;51.034;6.984;2023-04-30T01:28:41;11.03;;;9.50;;
11711;SDS011;5912;51.034;6.984;2023-04-30T01:31:12;12.20;;;9.93;;
11711;SDS011;5912;51.034;6.984;2023-04-30T01:33:38;11.17;;;9.30;;
11711;SDS011;5912;51.034;6.984;2023-04-30T01:49:57;11.60;;;9.20;;
11711;SDS011;5912;51.034;6.984;2023-04-30T01:52:55;10.90;;;9.07;;
11711;SDS011;5912;51.034;6.984;2023-04-30T01:55:25;9.70;;;8.17;;
11711;SDS011;5912;51.034;6.984;2023-04-30T01:57:58;11.20;;;9.37;;
11711;SDS011;5912;51.034;6.984;2023-04-30T02:00:25;11.73;;;8.93;;
11711;SDS011;5912;51.034;6.984;2023-04-30T02:02:51;10.63;;;8.53;;
11711;SDS011;5912;51.034;6.984;2023-04-30T02:05:17;10.80;;;8.63;;
11711;SDS011;5912;51.034;6.984;2023-04-30T02:07:43;11.47;;;9.10;;
11711;SDS011;5912;51.034;6.984;2023-04-30T02:10:11;10.23;;;8.43;;
11711;SDS011;5912;51.034;6.984;2023-04-30T02:12:36;11.20;;;9.17;;
11711;SDS011;5912;51.034;6.984;2023-04-30T02:15:03;11.67;;;9.40;;
11711;SDS011;5912;51.034;6.984;2023-04-30T02:17:29;13.37;;;9.43;;
11711;SDS011;5912;51.034;6.984;2023-04-30T02:19:55;10.73;;;8.40;;
11711;SDS011;5912;51.034;6.984;2023-04-30T02:22:20;10.17;;;8.37;;
11711;SDS011;5912;51.034;6.984;2023-04-30T02:24:45;9.93;;;8.13;;
11711;SDS011;5912;51.034;6.984;2023-04-30T02:27:11;9.30;;;7.97;;
11711;SDS011;5912;51.034;6.984;2023-04-30T02:29:36;9.67;;;8.27;;
11711;SDS011;5912;51.034;6.984;2023-04-30T02:32:02;8.67;;;7.10;;
11711;SDS011;5912;51.034;6.984;2023-04-30T02:34:27;12.73;;;7.50;;
11711;SDS011;5912;51.034;6.984;2023-04-30T02:36:52;10.33;;;7.97;;
11711;SDS011;5912;51.034;6.984;2023-04-30T02:39:18;10.73;;;7.17;;
11711;SDS011;5912;51.034;6.984;2023-04-30T02:41:43;8.93;;;6.87;;
11711;SDS011;5912;51.034;6.984;2023-04-30T02:44:08;8.67;;;6.83;;
11711;SDS011;5912;51.034;6.984;2023-04-30T02:46:34;9.07;;;7.53;;
11711;SDS011;5912;51.034;6.984;2023-04-30T02:48:59;8.67;;;7.03;;
11711;SDS011;5912;51.034;6.984;2023-04-30T02:51:24;10.47;;;7.30;;
11711;SDS011;5912;51.034;6.984;2023-04-30T02:53:50;9.27;;;7.03;;
11711;SDS011;5912;51.034;6.984;2023-04-30T02:56:16;9.23;;;7.33;;
11711;SDS011;5912;51.034;6.984;2023-04-30T02:58:41;9.13;;;7.67;;
11711;SDS011;5912;51.034;6.984;2023-04-30T03:01:06;8.37;;;7.20;;
11711;SDS011;5912;51.034;6.984;2023-04-30T03:03:32;7.97;;;7.17;;
11711;SDS011;5912;51.034;6.984;2023-04-30T03:05:57;9.63;;;7.97;;
11711;SDS011;5912;51.034;6.984;2023-04-30T03:08:23;9.97;;;7.50;;
11711;SDS011;5912;51.034;6.984;2023-04-30T03:10:49;9.27;;;7.53;;
11711;SDS011;5912;51.034;6.984;2023-04-30T03:13:14;8.63;;;7.50;;
11711;SDS011;5912;51.034;6.984;2023-04-30T03:15:40;9.17;;;7.33;;
11711;SDS011;5912;51.034;6.984;2023-04-30T03:18:05;11.60;;;8.00;;
11711;SDS011;5912;51.034;6.984;2023-04-30T03:20:30;8.80;;;7.07;;
11711;SDS011;5912;51.034;6.984;2023-04-30T03:22:56;9.27;;;7.80;;
11711;SDS011;5912;51.034;6.984;2023-04-30T03:25:21;8.83;;;7.63;;
11711;SDS011;5912;51.034;6.984;2023-04-30T03:27:46;9.80;;;8.27;;
11711;SDS011;5912;51.034;6.984;2023-04-30T03:30:11;11.00;;;8.40;;
11711;SDS011;5912;51.034;6.984;2023-04-30T03:32:37;9.97;;;7.70;;
11711;SDS011;5912;51.034;6.984;2023-04-30T03:35:02;10.87;;;8.57;;
11711;SDS011;5912;51.034;6.984;2023-04-30T03:37:28;10.00;;;8.07;;
11711;SDS011;5912;51.034;6.984;2023-04-30T03:39:53;11.27;;;8.53;;
11711;SDS011;5912;51.034;6.984;2023-04-30T03:42:19;9.73;;;7.90;;
11711;SDS011;5912;51.034;6.984;2023-04-30T03:44:45;9.57;;;7.77;;
11711;SDS011;5912;51.034;6.984;2023-04-30T03:47:10;11.17;;;9.10;;
11711;SDS011;5912;51.034;6.984;2023-04-30T03:49:35;10.00;;;8.40;;
11711;SDS011;5912;51.034;6.984;2023-04-30T03:52:01;10.27;;;8.07;;
11711;SDS011;5912;51.034;6.984;2023-04-30T03:54:26;11.03;;;8.20;;
11711;SDS011;5912;51.034;6.984;2023-04-30T03:56:52;12.33;;;8.77;;
11711;SDS011;5912;51.034;6.984;2023-04-30T03:59:18;11.87;;;8.83;;
11711;SDS011;5912;51.034;6.984;2023-04-30T04:01:43;12.53;;;9.07;;
11711;SDS011;5912;51.034;6.984;2023-04-30T04:04:08;11.10;;;9.10;;
11711;SDS011;5912;51.034;6.984;2023-04-30T04:06:34;10.33;;;8.53;;
11711;SDS011;5912;51.034;6.984;2023-04-30T04:08:59;13.03;;;9.17;;
11711;SDS011;5912;51.034;6.984;2023-04-30T04:11:25;13.23;;;8.93;;
11711;SDS011;5912;51.034;6.984;2023-04-30T04:13:50;12.83;;;8.93;;
11711;SDS011;5912;51.034;6.984;2023-04-30T04:16:15;13.43;;;9.87;;
11711;SDS011;5912;51.034;6.984;2023-04-30T04:18:41;12.13;;;9.37;;
11711;SDS011;5912;51.034;6.984;2023-04-30T04:21:06;10.20;;;8.50;;
11711;SDS011;5912;51.034;6.984;2023-04-30T04:23:31;12.77;;;9.17;;
11711;SDS011;5912;51.034;6.984;2023-04-30T04:25:57;12.43;;;9.10;;
11711;SDS011;5912;51.034;6.984;2023-04-30T04:28:22;12.43;;;8.50;;
11711;SDS011;5912;51.034;6.984;2023-04-30T04:30:47;12.23;;;8.70;;
11711;SDS011;5912;51.034;6.984;2023-04-30T04:33:13;12.53;;;8.87;;
11711;SDS011;5912;51.034;6.984;2023-04-30T04:35:38;11.83;;;8.03;;
11711;SDS011;5912;51.034;6.984;2023-04-30T04:38:04;13.73;;;9.30;;
11711;SDS011;5912;51.034;6.984;2023-04-30T04:40:30;11.43;;;8.60;;
11711;SDS011;5912;51.034;6.984;2023-04-30T04:42:55;11.47;;;8.40;;
11711;SDS011;5912;51.034;6.984;2023-04-30T04:45:20;9.70;;;8.20;;
11711;SDS011;5912;51.034;6.984;2023-04-30T04:47:46;11.03;;;8.30;;
11711;SDS011;5912;51.034;6.984;2023-04-30T04:50:12;11.20;;;8.20;;
11711;SDS011;5912;51.034;6.984;2023-04-30T04:52:37;11.60;;;8.50;;
11711;SDS011;5912;51.034;6.984;2023-04-30T04:55:03;12.57;;;9.03;;
11711;SDS011;5912;51.034;6.984;2023-04-30T04:57:29;10.73;;;8.80;;
11711;SDS011;5912;51.034;6.984;2023-04-30T04:59:54;10.90;;;9.07;;
11711;SDS011;5912;51.034;6.984;2023-04-30T05:02:20;10.03;;;7.93;;
11711;SDS011;5912;51.034;6.984;2023-04-30T05:04:47;11.50;;;8.47;;
11711;SDS011;5912;51.034;6.984;2023-04-30T05:07:14;11.40;;;7.97;;
11711;SDS011;5912;51.034;6.984;2023-04-30T05:09:39;12.07;;;8.50;;
11711;SDS011;5912;51.034;6.984;2023-04-30T05:12:05;12.00;;;8.93;;
11711;SDS011;5912;51.034;6.984;2023-04-30T05:14:30;12.50;;;9.07;;
11711;SDS011;5912;51.034;6.984;2023-04-30T05:16:55;11.43;;;8.67;;
11711;SDS011;5912;51.034;6.984;2023-04-30T05:19:21;11.33;;;8.30;;
11711;SDS011;5912;51.034;6.984;2023-04-30T05:21:46;10.73;;;8.20;;
11711;SDS011;5912;51.034;6.984;2023-04-30T05:24:11;12.10;;;8.30;;
11711;SDS011;5912;51.034;6.984;2023-04-30T05:26:36;13.10;;;8.83;;
11711;SDS011;5912;51.034;6.984;2023-04-30T05:29:02;12.07;;;8.67;;
11711;SDS011;5912;51.034;6.984;2023-04-30T05:31:27;10.13;;;8.50;;
11711;SDS011;5912;51.034;6.984;2023-04-30T05:33:52;13.83;;;9.27;;
11711;SDS011;5912;51.034;6.984;2023-04-30T05:36:18;11.30;;;9.63;;
11711;SDS011;5912;51.034;6.984;2023-04-30T05:38:43;11.57;;;9.25;;
11711;SDS011;5912;51.034;6.984;2023-04-30T05:41:10;10.77;;;8.67;;
11711;SDS011;5912;51.034;6.984;2023-04-30T05:43:36;11.00;;;9.13;;
11711;SDS011;5912;51.034;6.984;2023-04-30T05:46:01;10.68;;;8.57;;
11711;SDS011;5912;51.034;6.984;2023-04-30T05:48:30;10.73;;;9.03;;
11711;SDS011;5912;51.034;6.984;2023-04-30T05:50:55;12.38;;;9.65;;
11711;SDS011;5912;51.034;6.984;2023-04-30T05:53:21;14.93;;;10.17;;
11711;SDS011;5912;51.034;6.984;2023-04-30T05:55:46;12.98;;;10.32;;
11711;SDS011;5912;51.034;6.984;2023-04-30T05:58:11;12.38;;;10.07;;
11711;SDS011;5912;51.034;6.984;2023-04-30T06:00:37;14.00;;;10.43;;
11711;SDS011;5912;51.034;6.984;2023-04-30T06:03:03;12.93;;;10.73;;
11711;SDS011;5912;51.034;6.984;2023-04-30T06:05:28;13.85;;;11.00;;
11711;SDS011;5912;51.034;6.984;2023-04-30T06:07:54;13.27;;;9.70;;
11711;SDS011;5912;51.034;6.984;2023-04-30T06:10:19;15.23;;;10.13;;
11711;SDS011;5912;51.034;6.984;2023-04-30T06:12:45;12.15;;;9.60;;
11711;SDS011;5912;51.034;6.984;2023-04-30T06:15:10;11.02;;;8.93;;
11711;SDS011;5912;51.034;6.984;2023-04-30T06:17:35;11.07;;;9.25;;
11711;SDS011;5912;51.034;6.984;2023-04-30T06:20:01;10.05;;;8.73;;
11711;SDS011;5912;51.034;6.984;2023-04-30T06:22:30;11.10;;;8.00;;
11711;SDS011;5912;51.034;6.984;2023-04-30T06:24:55;10.70;;;7.80;;
11711;SDS011;5912;51.034;6.984;2023-04-30T06:27:21;10.48;;;8.27;;
11711;SDS011;5912;51.034;6.984;2023-04-30T06:29:47;9.10;;;8.13;;
11711;SDS011;5912;51.034;6.984;2023-04-30T06:32:12;11.30;;;8.02;;
11711;SDS011;5912;51.034;6.984;2023-04-30T06:34:38;8.70;;;7.78;;
11711;SDS011;5912;51.034;6.984;2023-04-30T06:37:03;8.75;;;7.47;;
11711;SDS011;5912;51.034;6.984;2023-04-30T06:39:28;8.07;;;7.28;;
11711;SDS011;5912;51.034;6.984;2023-04-30T06:41:54;7.97;;;6.93;;
11711;SDS011;5912;51.034;6.984;2023-04-30T06:44:20;7.60;;;6.53;;
11711;SDS011;5912;51.034;6.984;2023-04-30T06:46:45;7.78;;;6.18;;
11711;SDS011;5912;51.034;6.984;2023-04-30T06:49:10;8.32;;;6.78;;
11711;SDS011;5912;51.034;6.984;2023-04-30T06:51:35;9.15;;;6.68;;
11711;SDS011;5912;51.034;6.984;2023-04-30T06:54:01;7.97;;;6.50;;
11711;SDS011;5912;51.034;6.984;2023-04-30T06:56:26;8.38;;;6.10;;
11711;SDS011;5912;51.034;6.984;2023-04-30T06:58:51;6.97;;;5.05;;
11711;SDS011;5912;51.034;6.984;2023-04-30T07:01:17;7.90;;;6.97;;
11711;SDS011;5912;51.034;6.984;2023-04-30T07:03:42;8.68;;;6.28;;
11711;SDS011;5912;51.034;6.984;2023-04-30T07:06:08;8.30;;;6.32;;
11711;SDS011;5912;51.034;6.984;2023-04-30T07:08:33;8.07;;;6.60;;
11711;SDS011;5912;51.034;6.984;2023-04-30T07:10:58;7.68;;;6.18;;
11711;SDS011;5912;51.034;6.984;2023-04-30T07:13:24;5.43;;;4.93;;
11711;SDS011;5912;51.034;6.984;2023-04-30T07:15:49;5.38;;;4.82;;
11711;SDS011;5912;51.034;6.984;2023-04-30T07:18:15;7.10;;;5.07;;
11711;SDS011;5912;51.034;6.984;2023-04-30T07:20:41;5.82;;;5.20;;
11711;SDS011;5912;51.034;6.984;2023-04-30T07:23:06;6.60;;;5.82;;
11711;SDS011;5912;51.034;6.984;2023-04-30T07:25:32;6.28;;;5.22;;
11711;SDS011;5912;51.034;6.984;2023-04-30T07:27:58;7.28;;;5.60;;
11711;SDS011;5912;51.034;6.984;2023-04-30T07:30:24;5.95;;;4.32;;
11711;SDS011;5912;51.034;6.984;2023-04-30T07:32:49;5.75;;;4.75;;
11711;SDS011;5912;51.034;6.984;2023-04-30T07:35:15;7.05;;;6.20;;
11711;SDS011;5912;51.034;6.984;2023-04-30T07:37:40;6.68;;;5.15;;
11711;SDS011;5912;51.034;6.984;2023-04-30T07:40:07;6.72;;;4.55;;
11711;SDS011;5912;51.034;6.984;2023-04-30T07:42:37;5.65;;;4.75;;
11711;SDS011;5912;51.034;6.984;2023-04-30T07:45:06;4.88;;;4.07;;
11711;SDS011;5912;51.034;6.984;2023-04-30T07:47:31;5.13;;;4.38;;
11711;SDS011;5912;51.034;6.984;2023-04-30T07:49:57;6.40;;;4.53;;
11711;SDS011;5912;51.034;6.984;2023-04-30T07:52:22;5.88;;;4.80;;
11711;SDS011;5912;51.034;6.984;2023-04-30T07:54:47;4.45;;;4.03;;
11711;SDS011;5912;51.034;6.984;2023-04-30T07:57:13;4.03;;;3.63;;
11711;SDS011;5912;51.034;6.984;2023-04-30T07:59:38;5.07;;;4.07;;
11711;SDS011;5912;51.034;6.984;2023-04-30T08:02:03;6.93;;;3.75;;
11711;SDS011;5912;51.034;6.984;2023-04-30T08:04:29;4.38;;;3.53;;
11711;SDS011;5912;51.034;6.984;2023-04-30T08:06:54;4.75;;;3.92;;
11711;SDS011;5912;51.034;6.984;2023-04-30T08:09:19;4.45;;;3.60;;
11711;SDS011;5912;51.034;6.984;2023-04-30T08:11:45;4.47;;;4.07;;
11711;SDS011;5912;51.034;6.984;2023-04-30T08:14:10;3.70;;;3.20;;
11711;SDS011;5912;51.034;6.984;2023-04-30T08:16:35;3.15;;;2.50;;
11711;SDS011;5912;51.034;6.984;2023-04-30T08:19:01;3.35;;;2.85;;
11711;SDS011;5912;51.034;6.984;2023-04-30T08:21:26;3.88;;;3.45;;
11711;SDS011;5912;51.034;6.984;2023-04-30T08:23:52;3.03;;;2.63;;
11711;SDS011;5912;51.034;6.984;2023-04-30T08:26:18;6.70;;;2.80;;
11711;SDS011;5912;51.034;6.984;2023-04-30T08:28:43;3.40;;;2.78;;
11711;SDS011;5912;51.034;6.984;2023-04-30T08:31:09;3.88;;;2.63;;
11711;SDS011;5912;51.034;6.984;2023-04-30T08:33:34;4.13;;;3.15;;
11711;SDS011;5912;51.034;6.984;2023-04-30T08:35:59;4.25;;;3.28;;
11711;SDS011;5912;51.034;6.984;2023-04-30T08:38:25;3.55;;;3.25;;
11711;SDS011;5912;51.034;6.984;2023-04-30T08:40:55;4.57;;;2.97;;
11711;SDS011;5912;51.034;6.984;2023-04-30T08:43:28;4.05;;;2.92;;
11711;SDS011;5912;51.034;6.984;2023-04-30T08:45:54;3.63;;;3.10;;
11711;SDS011;5912;51.034;6.984;2023-04-30T08:48:20;3.83;;;3.20;;
11711;SDS011;5912;51.034;6.984;2023-04-30T08:50:48;5.50;;;3.03;;
11711;SDS011;5912;51.034;6.984;2023-04-30T08:53:13;3.33;;;2.97;;
11711;SDS011;5912;51.034;6.984;2023-04-30T08:55:41;2.88;;;2.47;;
11711;SDS011;5912;51.034;6.984;2023-04-30T08:58:07;2.15;;;1.95;;
11711;SDS011;5912;51.034;6.984;2023-04-30T09:00:34;2.60;;;2.33;;
11711;SDS011;5912;51.034;6.984;2023-04-30T09:03:01;2.33;;;2.10;;
11711;SDS011;5912;51.034;6.984;2023-04-30T09:05:27;4.55;;;3.50;;
11711;SDS011;5912;51.034;6.984;2023-04-30T09:07:52;3.50;;;2.97;;
11711;SDS011;5912;51.034;6.984;2023-04-30T09:10:18;4.65;;;2.80;;
11711;SDS011;5912;51.034;6.984;2023-04-30T09:13:02;3.83;;;3.35;;
11711;SDS011;5912;51.034;6.984;2023-04-30T09:15:29;3.65;;;2.65;;
11711;SDS011;5912;51.034;6.984;2023-04-30T09:18:14;2.90;;;2.53;;
11711;SDS011;5912;51.034;6.984;2023-04-30T09:20:58;1.58;;;1.20;;
11711;SDS011;5912;51.034;6.984;2023-04-30T09:23:27;1.73;;;1.20;;
11711;SDS011;5912;51.034;6.984;2023-04-30T09:25:53;1.55;;;1.05;;
11711;SDS011;5912;51.034;6.984;2023-04-30T09:28:19;1.40;;;1.30;;
11711;SDS011;5912;51.034;6.984;2023-04-30T09:30:49;1.20;;;1.10;;
11711;SDS011;5912;51.034;6.984;2023-04-30T09:33:15;1.10;;;0.90;;
11711;SDS011;5912;51.034;6.984;2023-04-30T09:35:41;1.38;;;0.90;;
11711;SDS011;5912;51.034;6.984;2023-04-30T09:38:07;1.45;;;1.10;;
11711;SDS011;5912;51.034;6.984;2023-04-30T09:40:48;1.10;;;1.00;;
11711;SDS011;5912;51.034;6.984;2023-04-30T09:43:14;1.33;;;0.85;;
11711;SDS011;5912;51.034;6.984;2023-04-30T09:45:40;2.28;;;1.13;;
11711;SDS011;5912;51.034;6.984;2023-04-30T09:48:11;1.90;;;0.98;;
11711;SDS011;5912;51.034;6.984;2023-04-30T09:50:40;1.40;;;1.30;;
11711;SDS011;5912;51.034;6.984;2023-04-30T09:53:06;1.38;;;0.93;;
11711;SDS011;5912;51.034;6.984;2023-04-30T09:55:33;0.65;;;0.65;;
11711;SDS011;5912;51.034;6.984;2023-04-30T09:58:01;1.48;;;0.88;;
11711;SDS011;5912;51.034;6.984;2023-04-30T10:00:29;1.55;;;1.20;;
11711;SDS011;5912;51.034;6.984;2023-04-30T10:03:08;1.45;;;1.20;;
11711;SDS011;5912;51.034;6.984;2023-04-30T10:05:36;1.40;;;1.10;;
11711;SDS011;5912;51.034;6.984;2023-04-30T10:08:06;1.20;;;0.80;;
11711;SDS011;5912;51.034;6.984;2023-04-30T10:10:36;0.50;;;0.50;;
11711;SDS011;5912;51.034;6.984;2023-04-30T10:16:07;1.10;;;1.00;;
11711;SDS011;5912;51.034;6.984;2023-04-30T10:18:42;2.47;;;0.90;;
11711;SDS011;5912;51.034;6.984;2023-04-30T10:21:10;1.88;;;1.67;;
11711;SDS011;5912;51.034;6.984;2023-04-30T10:23:38;2.00;;;1.70;;
11711;SDS011;5912;51.034;6.984;2023-04-30T10:26:07;1.15;;;0.90;;
11711;SDS011;5912;51.034;6.984;2023-04-30T10:28:36;0.80;;;0.63;;
11711;SDS011;5912;51.034;6.984;2023-04-30T10:31:01;1.92;;;0.70;;
11711;SDS011;5912;51.034;6.984;2023-04-30T10:36:27;0.95;;;0.63;;
11711;SDS011;5912;51.034;6.984;2023-04-30T10:38:58;0.68;;;0.52;;
11711;SDS011;5912;51.034;6.984;2023-04-30T10:41:25;2.08;;;0.70;;
11711;SDS011;5912;51.034;6.984;2023-04-30T10:43:50;1.90;;;0.70;;
11711;SDS011;5912;51.034;6.984;2023-04-30T10:46:20;0.82;;;0.60;;
11711;SDS011;5912;51.034;6.984;2023-04-30T10:48:47;0.60;;;0.60;;
11711;SDS011;5912;51.034;6.984;2023-04-30T10:51:13;1.00;;;0.80;;
11711;SDS011;5912;51.034;6.984;2023-04-30T10:53:38;0.57;;;0.57;;
11711;SDS011;5912;51.034;6.984;2023-04-30T10:56:06;0.70;;;0.52;;
11711;SDS011;5912;51.034;6.984;2023-04-30T10:58:39;0.73;;;0.70;;
11711;SDS011;5912;51.034;6.984;2023-04-30T11:01:06;0.60;;;0.60;;
11711;SDS011;5912;51.034;6.984;2023-04-30T11:03:40;0.60;;;0.50;;
11711;SDS011;5912;51.034;6.984;2023-04-30T11:06:07;1.30;;;1.17;;
11711;SDS011;5912;51.034;6.984;2023-04-30T11:08:38;1.30;;;1.20;;
11711;SDS011;5912;51.034;6.984;2023-04-30T11:11:07;2.17;;;1.42;;
11711;SDS011;5912;51.034;6.984;2023-04-30T11:16:09;1.27;;;0.90;;
11711;SDS011;5912;51.034;6.984;2023-04-30T11:18:40;1.02;;;0.63;;
11711;SDS011;5912;51.034;6.984;2023-04-30T11:21:11;2.60;;;0.50;;
11711;SDS011;5912;51.034;6.984;2023-04-30T11:23:39;0.50;;;0.50;;
11711;SDS011;5912;51.034;6.984;2023-04-30T11:26:09;0.43;;;0.43;;
11711;SDS011;5912;51.034;6.984;2023-04-30T11:28:35;0.55;;;0.40;;
11711;SDS011;5912;51.034;6.984;2023-04-30T11:31:02;0.65;;;0.55;;
11711;SDS011;5912;51.034;6.984;2023-04-30T11:33:28;1.63;;;0.80;;
11711;SDS011;5912;51.034;6.984;2023-04-30T11:35:55;0.80;;;0.80;;
11711;SDS011;5912;51.034;6.984;2023-04-30T11:38:28;1.10;;;0.60;;
11711;SDS011;5912;51.034;6.984;2023-04-30T11:40:55;1.05;;;0.90;;
11711;SDS011;5912;51.034;6.984;2023-04-30T11:48:23;0.43;;;0.40;;
11711;SDS011;5912;51.034;6.984;2023-04-30T11:50:49;0.30;;;0.30;;
11711;SDS011;5912;51.034;6.984;2023-04-30T11:53:14;0.63;;;0.50;;
11711;SDS011;5912;51.034;6.984;2023-04-30T11:55:40;0.50;;;0.50;;
11711;SDS011;5912;51.034;6.984;2023-04-30T11:58:07;0.40;;;0.40;;
11711;SDS011;5912;51.034;6.984;2023-04-30T12:00:33;0.47;;;0.47;;
11711;SDS011;5912;51.034;6.984;2023-04-30T12:02:59;0.73;;;0.40;;
11711;SDS011;5912;51.034;6.984;2023-04-30T12:05:27;0.43;;;0.32;;
11711;SDS011;5912;51.034;6.984;2023-04-30T12:07:59;0.43;;;0.32;;
11711;SDS011;5912;51.034;6.984;2023-04-30T12:10:29;0.47;;;0.47;;
11711;SDS011;5912;51.034;6.984;2023-04-30T12:12:56;0.32;;;0.32;;
11711;SDS011;5912;51.034;6.984;2023-04-30T12:15:21;1.17;;;0.47;;
11711;SDS011;5912;51.034;6.984;2023-04-30T12:17:55;0.60;;;0.40;;
11711;SDS011;5912;51.034;6.984;2023-04-30T12:20:21;0.52;;;0.43;;
11711;SDS011;5912;51.034;6.984;2023-04-30T12:22:49;0.60;;;0.55;;
11711;SDS011;5912;51.034;6.984;2023-04-30T12:25:19;0.65;;;0.40;;
11711;SDS011;5912;51.034;6.984;2023-04-30T12:27:48;0.60;;;0.43;;
11711;SDS011;5912;51.034;6.984;2023-04-30T12:30:17;0.80;;;0.50;;
11711;SDS011;5912;51.034;6.984;2023-04-30T12:32:47;1.13;;;0.40;;
11711;SDS011;5912;51.034;6.984;2023-04-30T12:35:15;0.75;;;0.45;;
11711;SDS011;5912;51.034;6.984;2023-04-30T12:37:54;0.80;;;0.50;;
11711;SDS011;5912;51.034;6.984;2023-04-30T12:40:26;0.63;;;0.30;;
11711;SDS011;5912;51.034;6.984;2023-04-30T12:42:58;1.15;;;0.80;;
11711;SDS011;5912;51.034;6.984;2023-04-30T12:45:41;0.52;;;0.30;;
11711;SDS011;5912;51.034;6.984;2023-04-30T12:48:07;0.40;;;0.40;;
11711;SDS011;5912;51.034;6.984;2023-04-30T12:50:32;1.10;;;0.73;;
11711;SDS011;5912;51.034;6.984;2023-04-30T12:53:00;0.40;;;0.40;;
11711;SDS011;5912;51.034;6.984;2023-04-30T12:55:26;1.20;;;0.80;;
11711;SDS011;5912;51.034;6.984;2023-04-30T12:58:06;0.95;;;0.88;;
11711;SDS011;5912;51.034;6.984;2023-04-30T13:00:43;0.77;;;0.68;;
11711;SDS011;5912;51.034;6.984;2023-04-30T13:03:09;1.42;;;1.05;;
11711;SDS011;5912;51.034;6.984;2023-04-30T13:05:36;2.17;;;1.80;;
11711;SDS011;5912;51.034;6.984;2023-04-30T13:08:01;1.67;;;1.50;;
11711;SDS011;5912;51.034;6.984;2023-04-30T13:10:27;0.65;;;0.30;;
11711;SDS011;5912;51.034;6.984;2023-04-30T13:12:53;0.68;;;0.60;;
11711;SDS011;5912;51.034;6.984;2023-04-30T13:15:19;0.63;;;0.60;;
11711;SDS011;5912;51.034;6.984;2023-04-30T13:17:44;1.00;;;0.70;;
11711;SDS011;5912;51.034;6.984;2023-04-30T13:20:09;0.40;;;0.40;;
11711;SDS011;5912;51.034;6.984;2023-04-30T13:22:35;0.70;;;0.60;;
11711;SDS011;5912;51.034;6.984;2023-04-30T13:25:01;0.73;;;0.47;;
11711;SDS011;5912;51.034;6.984;2023-04-30T13:27:27;2.78;;;2.05;;
11711;SDS011;5912;51.034;6.984;2023-04-30T13:29:52;1.00;;;0.90;;
11711;SDS011;5912;51.034;6.984;2023-04-30T13:32:17;4.15;;;3.78;;
11711;SDS011;5912;51.034;6.984;2023-04-30T13:34:43;19.73;;;17.63;;
11711;SDS011;5912;51.034;6.984;2023-04-30T13:37:09;8.68;;;7.78;;
11711;SDS011;5912;51.034;6.984;2023-04-30T13:39:34;2.58;;;1.40;;
11711;SDS011;5912;51.034;6.984;2023-04-30T13:42:00;0.80;;;0.70;;
11711;SDS011;5912;51.034;6.984;2023-04-30T13:44:25;1.48;;;1.00;;
11711;SDS011;5912;51.034;6.984;2023-04-30T13:46:51;0.63;;;0.40;;
11711;SDS011;5912;51.034;6.984;2023-04-30T13:49:16;0.98;;;0.80;;
11711;SDS011;5912;51.034;6.984;2023-04-30T13:51:41;2.05;;;1.85;;
11711;SDS011;5912;51.034;6.984;2023-04-30T13:54:07;1.73;;;1.52;;
11711;SDS011;5912;51.034;6.984;2023-04-30T13:56:32;0.98;;;0.88;;
11711;SDS011;5912;51.034;6.984;2023-04-30T13:58:57;6.95;;;5.28;;
11711;SDS011;5912;51.034;6.984;2023-04-30T14:01:23;2.55;;;2.00;;
11711;SDS011;5912;51.034;6.984;2023-04-30T14:03:48;7.57;;;5.97;;
11711;SDS011;5912;51.034;6.984;2023-04-30T14:06:13;2.17;;;1.85;;
11711;SDS011;5912;51.034;6.984;2023-04-30T14:08:39;4.82;;;4.32;;
11711;SDS011;5912;51.034;6.984;2023-04-30T14:11:04;2.63;;;2.30;;
11711;SDS011;5912;51.034;6.984;2023-04-30T14:13:29;5.38;;;3.40;;
11711;SDS011;5912;51.034;6.984;2023-04-30T14:15:55;24.63;;;18.13;;
11711;SDS011;5912;51.034;6.984;2023-04-30T14:18:20;15.88;;;12.60;;
11711;SDS011;5912;51.034;6.984;2023-04-30T14:20:47;1.55;;;1.38;;
11711;SDS011;5912;51.034;6.984;2023-04-30T14:23:12;11.35;;;8.13;;
11711;SDS011;5912;51.034;6.984;2023-04-30T14:25:38;3.25;;;2.63;;
11711;SDS011;5912;51.034;6.984;2023-04-30T14:28:03;16.52;;;11.98;;
11711;SDS011;5912;51.034;6.984;2023-04-30T14:30:28;6.25;;;4.65;;
11711;SDS011;5912;51.034;6.984;2023-04-30T14:32:53;0.98;;;0.80;;
11711;SDS011;5912;51.034;6.984;2023-04-30T14:35:19;1.80;;;1.20;;
11711;SDS011;5912;51.034;6.984;2023-04-30T14:37:45;0.60;;;0.60;;
11711;SDS011;5912;51.034;6.984;2023-04-30T14:40:10;0.88;;;0.80;;
11711;SDS011;5912;51.034;6.984;2023-04-30T14:42:36;1.15;;;0.60;;
11711;SDS011;5912;51.034;6.984;2023-04-30T14:45:01;0.60;;;0.60;;
11711;SDS011;5912;51.034;6.984;2023-04-30T14:47:27;1.42;;;0.95;;
11711;SDS011;5912;51.034;6.984;2023-04-30T14:49:53;1.02;;;0.70;;
11711;SDS011;5912;51.034;6.984;2023-04-30T14:52:18;0.68;;;0.50;;
11711;SDS011;5912;51.034;6.984;2023-04-30T14:54:44;0.65;;;0.60;;
11711;SDS011;5912;51.034;6.984;2023-04-30T14:57:09;0.55;;;0.55;;
11711;SDS011;5912;51.034;6.984;2023-04-30T14:59:35;0.50;;;0.50;;
11711;SDS011;5912;51.034;6.984;2023-04-30T15:02:02;2.20;;;1.58;;
11711;SDS011;5912;51.034;6.984;2023-04-30T15:04:28;7.85;;;4.57;;
11711;SDS011;5912;51.034;6.984;2023-04-30T15:06:53;7.40;;;4.85;;
11711;SDS011;5912;51.034;6.984;2023-04-30T15:09:18;1.83;;;1.50;;
11711;SDS011;5912;51.034;6.984;2023-04-30T15:11:44;1.80;;;1.65;;
11711;SDS011;5912;51.034;6.984;2023-04-30T15:14:09;1.95;;;1.60;;
11711;SDS011;5912;51.034;6.984;2023-04-30T15:16:35;1.10;;;1.00;;
11711;SDS011;5912;51.034;6.984;2023-04-30T15:19:01;1.52;;;0.73;;
11711;SDS011;5912;51.034;6.984;2023-04-30T15:21:27;1.17;;;1.05;;
11711;SDS011;5912;51.034;6.984;2023-04-30T15:23:53;1.10;;;1.00;;